Flight Track Log - Related Links

Times and Time Zones

All times are in EDT time to prevent confusion due to time zone crossing. See the ELJ309 flight status page for this flight to view local times or setup timezone preferences in your user account.

Time Position Orientation Groundspeed Altitude Reporting Facility
EDT Latitude Longitude Course Direction KTS km/h feet Rate Location/Type
Sun 22:30:32 41.3714 -81.6317 289° West 93 172 3.000  Level Cleveland Center
Sun 22:32:00 41.2465 -81.5885 165° South  Level Estimated
Sun 22:39:00 40.6503 -81.3845 165° South  Level Estimated
Sun 22:40:00 40.5651 -81.3557 166° South  Level Estimated
Sun 22:41:00 40.4799 -81.3269 166° South  Level Estimated
Sun 22:42:00 40.3947 -81.2982 166° South  Level Estimated
Sun 22:43:00 40.3095 -81.2696 166° South  Level Estimated
Sun 22:44:00 40.2243 -81.2410 166° South  Level Estimated
Sun 22:45:00 40.1390 -81.2125 166° South  Level Estimated
Sun 22:46:00 40.0538 -81.1841 166° South  Level Estimated
Sun 22:47:00 39.9685 -81.1558 166° South  Level Estimated
Sun 22:48:00 39.8833 -81.1275 166° South  Level Estimated
Sun 22:49:00 39.7980 -81.0994 166° South  Level Estimated
Sun 22:50:00 39.7127 -81.0712 166° South  Level Estimated
Sun 22:51:00 39.6275 -81.0432 166° South  Level Estimated
Sun 22:52:00 39.5422 -81.0152 166° South  Level Estimated
Sun 22:53:00 39.4569 -80.9873 166° South  Level Estimated
Sun 22:54:00 39.3716 -80.9594 166° South  Level Estimated
Sun 22:55:00 39.2863 -80.9316 166° South  Level Estimated
Sun 22:56:00 39.2010 -80.9039 166° South  Level Estimated
Sun 22:57:00 39.1157 -80.8763 166° South  Level Estimated
Sun 22:58:00 39.0303 -80.8487 166° South  Level Estimated
Sun 22:59:00 38.9450 -80.8212 166° South  Level Estimated
Sun 23:00:00 38.8597 -80.7937 166° South  Level Estimated
Sun 23:01:00 38.7743 -80.7664 166° South  Level Estimated
Sun 23:02:00 38.6890 -80.7391 166° South  Level Estimated
Sun 23:03:00 38.6036 -80.7118 166° South  Level Estimated
Sun 23:04:00 38.5183 -80.6846 166° South  Level Estimated
Sun 23:05:00 38.4329 -80.6575 166° South  Level Estimated
Sun 23:06:00 38.3475 -80.6304 166° South  Level Estimated
Sun 23:07:00 38.2621 -80.6035 166° South  Level Estimated
Sun 23:08:00 38.1768 -80.5765 166° South  Level Estimated
Sun 23:09:00 38.0914 -80.5497 166° South  Level Estimated
Sun 23:10:00 38.0060 -80.5229 166° South  Level Estimated
Sun 23:11:00 37.9206 -80.4961 166° South  Level Estimated
Sun 23:12:00 37.8352 -80.4694 166° South  Level Estimated
Sun 23:13:00 37.7497 -80.4428 166° South  Level Estimated
Sun 23:14:00 37.6643 -80.4163 166° South  Level Estimated
Sun 23:15:00 37.5789 -80.3898 166° South  Level Estimated
Sun 23:16:00 37.4935 -80.3633 166° South  Level Estimated
Sun 23:17:00 37.4080 -80.3370 166° South  Level Estimated
Sun 23:18:00 37.3226 -80.3107 166° South  Level Estimated
Sun 23:19:00 37.2371 -80.2844 166° South  Level Estimated
Sun 23:20:00 37.1517 -80.2582 166° South  Level Estimated
Sun 23:21:00 37.0662 -80.2321 166° South  Level Estimated
Sun 23:22:00 36.9807 -80.2060 166° South  Level Estimated
Sun 23:23:00 36.8953 -80.1800 166° South  Level Estimated
Sun 23:24:00 36.8098 -80.1540 166° South  Level Estimated
Sun 23:25:00 36.7243 -80.1281 166° South  Level Estimated
Sun 23:26:00 36.6388 -80.1023 166° South  Level Estimated
Sun 23:27:00 36.5533 -80.0765 166° South  Level Estimated
Sun 23:28:00 36.4678 -80.0508 166° South  Level Estimated
Sun 23:29:00 36.3823 -80.0251 166° South  Level Estimated
Sun 23:30:00 36.2968 -79.9995 166° South  Level Estimated
Sun 23:31:00 36.2113 -79.9739 166° South  Level Estimated
Sun 23:32:00 36.1257 -79.9484 166° South  Level Estimated
Sun 23:33:00 36.1013 -79.9411 166° South  Level Estimated
Sun 23:34:00 36.1013 -79.9411 214° Southwest  Level Estimated
Sun 23:35:00 36.1013 -79.9411 214° Southwest  Level Estimated
Sun 23:36:00 36.1013 -79.9411 214° Southwest  Level Estimated
Sun 23:37:00 36.1013 -79.9411 214° Southwest  Level Estimated
Sun 23:38:00 36.1013 -79.9411 214° Southwest  Level Estimated
Sun 23:39:00 36.1013 -79.9411 214° Southwest  Level Estimated
Sun 23:40:00 36.1013 -79.9411 214° Southwest  Level Estimated
Sun 23:41:00 36.1013 -79.9411 214° Southwest  Level Estimated
Sun 23:42:00 36.1013 -79.9411 214° Southwest  Level Estimated
Sun 23:43:00 36.1013 -79.9411 214° Southwest  Level Estimated
Sun 23:44:00 36.1013 -79.9411 214° Southwest  Level Estimated
Sun 23:45:00 36.1013 -79.9411 214° Southwest  Level Estimated
Sun 23:46:00 36.1013 -79.9411 214° Southwest  Level Estimated
Sun 23:47:00 36.1013 -79.9411 214° Southwest  Level Estimated
Sun 23:48:00 36.1013 -79.9411 214° Southwest  Level Estimated
Sun 23:49:00 36.1013 -79.9411 214° Southwest  Level Estimated
Sun 23:50:00 36.1013 -79.9411 214° Southwest  Level Estimated
Sun 23:51:00 36.1013 -79.9411 214° Southwest  Level Estimated
Sun 23:52:00 36.1013 -79.9411 214° Southwest  Level Estimated
Sun 23:53:00 36.1013 -79.9411 214° Southwest  Level Estimated
Sun 23:54:00 36.1013 -79.9411 214° Southwest  Level Estimated
Sun 23:55:00 36.1013 -79.9411 214° Southwest  Level Estimated
Sun 23:56:00 36.1013 -79.9411 214° Southwest  Level Estimated

Login

Don't have an account? Register now (free) for customized features, flight alerts, and more!